Time;durP1;ratioP1;P1;durP2;ratioP2;P2;SDS_P1;SDS_P2;PMS_P1;PMS_P2;Temp;Humidity;BMP_temperature;BMP_pressure;BME280_temperature;BME280_humidity;BME280_pressure;Samples;Min_cycle;Max_cycle;Signal;HPM_P1;HPM_P2
2021/04/27 00:01:56;;;;;;;3.33;1.67;;;;;;;6.76;43.17;101752.91;6163052;28;20238;-55
2021/04/27 00:05:18;;;;;;;2.10;1.90;;;;;;;6.70;43.16;101756.25;6165186;28;20234;-56
2021/04/27 00:08:40;;;;;;;2.23;1.30;;;;;;;6.92;43.12;101751.53;6165484;28;20247;-53
2021/04/27 00:12:01;;;;;;;1.97;1.50;;;;;;;6.88;43.47;101753.19;6162965;28;20628;-55
2021/04/27 00:15:24;;;;;;;2.30;2.10;;;;;;;6.85;42.95;101739.31;6159868;28;20302;-58
2021/04/27 00:18:46;;;;;;;4.20;2.20;;;;;;;6.64;43.70;101750.94;6162821;28;20238;-55
2021/04/27 00:22:08;;;;;;;2.13;1.70;;;;;;;6.44;44.28;101750.50;6166250;28;20832;-58
2021/04/27 00:25:29;;;;;;;2.67;1.70;;;;;;;6.72;43.69;101743.34;6163297;28;20466;-54
2021/04/27 00:28:49;;;;;;;3.13;1.40;;;;;;;6.79;43.25;101734.00;6129930;28;20231;-56
2021/04/27 00:32:10;;;;;;;2.80;2.37;;;;;;;6.81;43.31;101727.13;6163389;28;20283;-56
2021/04/27 00:35:31;;;;;;;2.50;2.17;;;;;;;6.66;43.76;101738.03;6164801;28;20262;-56
2021/04/27 00:38:52;;;;;;;3.37;2.00;;;;;;;6.46;43.93;101730.69;6162907;28;20226;-55
2021/04/27 00:42:13;;;;;;;4.53;1.97;;;;;;;6.50;43.93;101724.75;6162193;28;20262;-53
2021/04/27 00:45:33;;;;;;;4.13;1.57;;;;;;;6.45;44.40;101725.47;6160845;28;20226;-56
2021/04/27 00:48:54;;;;;;;2.47;1.93;;;;;;;6.64;43.65;101731.94;6160382;28;20230;-54
2021/04/27 00:52:15;;;;;;;3.60;1.63;;;;;;;6.46;44.08;101725.53;6161511;28;20321;-52
2021/04/27 00:55:36;;;;;;;2.60;1.43;;;;;;;6.31;44.22;101720.88;6139338;28;20226;-55
2021/04/27 00:58:58;;;;;;;2.60;2.00;;;;;;;6.38;44.71;101724.47;6147299;28;20238;-56
2021/04/27 01:02:19;;;;;;;2.70;1.80;;;;;;;6.53;44.14;101725.66;6144884;28;20654;-56
2021/04/27 01:05:41;;;;;;;2.03;1.80;;;;;;;6.29;44.82;101729.44;6153762;28;20384;-53
2021/04/27 01:09:07;;;;;;;2.70;2.50;;;;;;;6.20;44.81;101726.63;6158106;28;20289;-54
2021/04/27 01:12:32;;;;;;;2.03;1.80;;;;;;;6.26;44.69;101721.59;6140118;28;20243;-57
2021/04/27 01:15:55;;;;;;;2.27;2.03;;;;;;;6.33;44.68;101723.50;6151840;28;20239;-51
2021/04/27 01:19:24;;;;;;;4.27;2.30;;;;;;;6.11;45.36;101723.00;6163001;28;20234;-55
2021/04/27 01:23:02;;;;;;;1.93;1.60;;;;;;;6.05;45.24;101717.69;6162543;28;20227;-57
2021/04/27 01:26:31;;;;;;;2.27;2.07;;;;;;;6.15;45.05;101717.91;6154094;28;20234;-54
2021/04/27 01:29:52;;;;;;;1.53;1.37;;;;;;;6.15;45.21;101713.59;6155984;28;20226;-57
2021/04/27 01:33:17;;;;;;;2.70;1.50;;;;;;;6.26;44.88;101704.38;6160314;28;20234;-55
2021/04/27 01:36:38;;;;;;;3.63;2.10;;;;;;;6.16;45.23;101714.47;6172109;28;20231;-57
2021/04/27 01:39:59;;;;;;;2.67;1.53;;;;;;;6.19;44.71;101709.38;6172802;28;20226;-54
2021/04/27 01:43:22;;;;;;;1.70;1.40;;;;;;;6.08;45.70;101711.69;6176587;28;20243;-55
2021/04/27 01:46:44;;;;;;;4.87;2.07;;;;;;;6.08;45.70;101722.06;6159812;28;20246;-57
2021/04/27 01:50:06;;;;;;;3.07;2.07;;;;;;;6.08;45.28;101704.81;6153641;28;20818;-53
2021/04/27 01:53:45;;;;;;;1.70;1.60;;;;;;;5.83;46.18;101715.38;6162391;28;20237;-54
2021/04/27 01:57:06;;;;;;;2.90;2.17;;;;;;;5.70;46.33;101709.91;6154261;28;20226;-55
2021/04/27 02:00:28;;;;;;;3.43;2.33;;;;;;;5.84;45.96;101706.78;6157748;28;20753;-56
2021/04/27 02:03:49;;;;;;;2.43;1.83;;;;;;;5.86;46.20;101708.56;6151717;28;20230;-58
2021/04/27 02:07:36;;;;;;;2.10;1.90;;;;;;;5.79;46.09;101698.91;6153784;28;20233;-57
2021/04/27 02:10:59;;;;;;;1.80;1.70;;;;;;;5.82;45.60;101696.41;6149130;28;20551;-55
2021/04/27 02:14:22;;;;;;;4.50;1.73;;;;;;;5.63;46.64;101700.25;6159332;28;20230;-56
2021/04/27 02:17:49;;;;;;;3.37;1.90;;;;;;;5.80;46.50;101703.25;6161347;28;20246;-53
2021/04/27 02:21:11;;;;;;;2.10;1.50;;;;;;;5.60;46.88;101697.56;6166957;28;20235;-54
2021/04/27 02:24:51;;;;;;;2.30;1.57;;;;;;;5.72;46.19;101702.19;6159068;28;20257;-54
2021/04/27 02:28:13;;;;;;;3.63;2.17;;;;;;;5.48;47.57;101697.25;6144525;28;20242;-57
2021/04/27 02:31:34;;;;;;;3.40;2.47;;;;;;;5.51;47.14;101697.34;6156131;28;20768;-55
2021/04/27 02:34:56;;;;;;;2.70;1.97;;;;;;;5.68;46.69;101690.00;6155726;28;20234;-54
2021/04/27 02:38:19;;;;;;;2.73;1.77;;;;;;;5.54;47.00;101694.84;6167140;28;20266;-57
2021/04/27 02:41:40;;;;;;;2.57;1.90;;;;;;;5.50;47.39;101686.13;6157595;28;20321;-54
2021/04/27 02:45:13;;;;;;;2.13;2.00;;;;;;;5.61;47.49;101683.81;6163029;28;20639;-54
2021/04/27 02:48:59;;;;;;;2.40;2.20;;;;;;;5.55;46.83;101682.81;6163317;28;20226;-55
2021/04/27 02:52:23;;;;;;;2.83;1.80;;;;;;;5.46;47.04;101678.25;6164036;28;20222;-57
2021/04/27 02:55:54;;;;;;;2.30;2.10;;;;;;;5.22;48.21;101679.38;6172220;28;20233;-56
2021/04/27 02:59:15;;;;;;;2.10;2.00;;;;;;;5.28;48.21;101674.38;6156412;28;20342;-52
2021/04/27 03:02:36;;;;;;;4.47;3.00;;;;;;;5.21;48.16;101672.44;6150775;28;20561;-56
2021/04/27 03:05:57;;;;;;;4.70;2.30;;;;;;;5.22;48.18;101673.34;6158504;28;20234;-56
2021/04/27 03:09:19;;;;;;;2.60;1.90;;;;;;;5.13;48.37;101673.97;6176190;28;20243;-55
2021/04/27 03:12:42;;;;;;;2.37;2.17;;;;;;;5.21;48.74;101664.69;6164776;28;20238;-57
2021/04/27 03:16:03;;;;;;;4.43;3.93;;;;;;;5.13;49.53;101664.50;6159721;28;20223;-55
2021/04/27 03:19:23;;;;;;;2.87;2.33;;;;;;;5.03;49.36;101671.97;6164843;28;20225;-57
2021/04/27 03:22:59;;;;;;;3.27;2.60;;;;;;;5.02;48.39;101658.19;6161238;28;20234;-54
2021/04/27 03:26:21;;;;;;;2.87;2.27;;;;;;;4.98;49.30;101663.22;6164224;28;20234;-55
2021/04/27 03:29:59;;;;;;;2.93;2.17;;;;;;;4.98;48.74;101653.75;6156201;28;20592;-56
2021/04/27 03:33:21;;;;;;;2.67;1.90;;;;;;;4.86;48.69;101656.88;6165713;28;20231;-57
2021/04/27 03:36:45;;;;;;;2.63;1.97;;;;;;;4.89;49.16;101654.41;6152019;28;20230;-56
2021/04/27 03:40:08;;;;;;;2.37;1.87;;;;;;;5.04;50.85;101650.47;6176772;28;20337;-56
2021/04/27 03:43:30;;;;;;;8.47;2.57;;;;;;;5.06;50.41;101651.38;6175878;28;21566;-56
2021/04/27 03:46:51;;;;;;;2.80;2.60;;;;;;;5.07;50.15;101651.44;6164176;28;20246;-54
2021/04/27 03:50:15;;;;;;;2.90;2.07;;;;;;;5.12;50.41;101651.56;6152989;28;20230;-56
2021/04/27 03:53:44;;;;;;;2.90;1.93;;;;;;;5.15;49.20;101653.34;6176032;28;20245;-57
2021/04/27 03:57:11;;;;;;;2.90;2.60;;;;;;;5.21;49.45;101656.97;6156422;28;20242;-56
2021/04/27 04:00:47;;;;;;;3.13;2.47;;;;;;;5.21;49.41;101656.97;6148799;28;20235;-57
2021/04/27 04:04:14;;;;;;;3.43;2.97;;;;;;;5.21;49.86;101656.09;6169310;28;20237;-56
2021/04/27 04:07:51;;;;;;;33.87;30.43;;;;;;;5.04;49.02;101663.38;6156277;28;20235;-51
2021/04/27 04:11:14;;;;;;;20.07;18.07;;;;;;;5.02;48.92;101659.88;6161777;28;20792;-52
2021/04/27 04:14:35;;;;;;;5.07;3.60;;;;;;;4.95;49.19;101656.28;6160129;28;20255;-56
2021/04/27 04:18:01;;;;;;;14.03;12.63;;;;;;;4.88;49.53;101657.78;6151075;28;20226;-54
2021/04/27 04:21:23;;;;;;;22.83;20.27;;;;;;;4.68;50.07;101653.78;6173217;28;20254;-51
2021/04/27 04:25:01;;;;;;;5.13;4.73;;;;;;;4.81;49.77;101655.91;6157201;28;20238;-52
2021/04/27 04:28:22;;;;;;;6.43;3.87;;;;;;;4.74;49.38;101659.13;6172570;28;20223;-52
2021/04/27 04:31:43;;;;;;;8.40;4.97;;;;;;;4.89;49.47;101661.28;6155304;28;21022;-55
2021/04/27 04:35:24;;;;;;;17.93;16.23;;;;;;;4.88;50.16;101659.50;6164808;28;20693;-55
2021/04/27 04:39:04;;;;;;;4.13;3.73;;;;;;;5.13;49.14;101655.88;6156507;28;20533;-57
2021/04/27 04:42:44;;;;;;;5.90;2.70;;;;;;;5.12;48.73;101659.31;6158790;28;20238;-54
2021/04/27 04:46:23;;;;;;;3.87;2.47;;;;;;;5.08;48.85;101654.91;6156461;28;20242;-57
2021/04/27 04:49:50;;;;;;;2.73;2.53;;;;;;;5.36;48.23;101659.06;6158692;28;20234;-57
2021/04/27 04:53:30;;;;;;;3.90;2.30;;;;;;;5.50;47.47;101660.28;6153272;28;20221;-53
2021/04/27 04:56:51;;;;;;;2.50;2.20;;;;;;;5.32;48.52;101658.13;6140167;28;20801;-57
2021/04/27 05:00:14;;;;;;;4.97;2.90;;;;;;;5.27;48.55;101662.31;6152239;28;20326;-55
2021/04/27 05:04:13;;;;;;;2.57;2.10;;;;;;;5.09;48.96;101662.66;6148390;28;20230;-53
2021/04/27 05:08:12;;;;;;;2.83;2.63;;;;;;;5.16;48.31;101663.72;6144290;28;20576;-55
2021/04/27 05:11:51;;;;;;;3.53;2.27;;;;;;;5.32;48.08;101673.63;6163511;28;20231;-55
2021/04/27 05:15:38;;;;;;;3.80;2.10;;;;;;;5.15;48.41;101661.97;6161923;28;20230;-54
2021/04/27 05:18:59;;;;;;;2.83;2.27;;;;;;;5.47;47.97;101659.38;6155104;28;20604;-56
2021/04/27 05:22:20;;;;;;;5.50;5.00;;;;;;;5.94;47.53;101661.34;6164357;28;20231;-54
2021/04/27 05:25:41;;;;;;;5.03;3.40;;;;;;;5.82;47.43;101672.28;6162806;28;20270;-56
2021/04/27 05:29:09;;;;;;;3.33;2.33;;;;;;;5.92;46.86;101661.31;6161460;28;20226;-57
2021/04/27 05:32:29;;;;;;;4.17;2.50;;;;;;;5.72;46.87;101672.06;6148905;28;20226;-57
2021/04/27 05:35:50;;;;;;;3.00;2.13;;;;;;;6.10;46.11;101663.47;6163004;28;20329;-56
2021/04/27 05:39:11;;;;;;;2.90;2.20;;;;;;;6.05;46.12;101671.13;6160861;28;20235;-56
2021/04/27 05:42:31;;;;;;;3.27;2.10;;;;;;;6.13;46.31;101680.75;6159314;28;20230;-56
2021/04/27 05:45:52;;;;;;;8.27;3.23;;;;;;;6.04;46.31;101673.69;6157929;28;20235;-57
2021/04/27 05:49:13;;;;;;;4.07;2.33;;;;;;;6.17;46.15;101677.44;6152901;28;20234;-56
2021/04/27 05:52:34;;;;;;;2.30;1.80;;;;;;;6.73;45.47;101672.59;6153725;28;20226;-56
2021/04/27 05:55:55;;;;;;;2.10;1.90;;;;;;;6.83;44.72;101671.06;6151124;28;20223;-56
2021/04/27 05:59:15;;;;;;;9.03;2.40;;;;;;;6.94;44.73;101676.44;6154662;28;20238;-55
2021/04/27 06:02:37;;;;;;;5.47;2.60;;;;;;;6.47;44.93;101682.41;6160673;28;20230;-53
2021/04/27 06:05:57;;;;;;;3.47;2.20;;;;;;;7.11;44.27;101675.06;6148729;28;20652;-53
2021/04/27 06:09:18;;;;;;;3.47;2.40;;;;;;;7.10;44.37;101678.50;6168083;28;20735;-55
2021/04/27 06:12:39;;;;;;;2.83;2.50;;;;;;;6.53;45.07;101672.16;6158059;28;20226;-57
2021/04/27 06:16:00;;;;;;;2.33;2.00;;;;;;;7.14;43.75;101677.72;6157419;28;20604;-53
2021/04/27 06:19:21;;;;;;;2.60;2.37;;;;;;;7.54;42.92;101675.84;6167027;28;20762;-57
2021/04/27 06:22:42;;;;;;;4.03;1.80;;;;;;;7.58;42.48;101682.84;6161860;28;20238;-56
2021/04/27 06:26:02;;;;;;;2.27;1.97;;;;;;;7.51;42.76;101678.38;6157491;28;20707;-57
2021/04/27 06:29:23;;;;;;;6.20;2.07;;;;;;;7.27;42.99;101679.69;6160361;28;20226;-54
2021/04/27 06:32:45;;;;;;;9.27;2.60;;;;;;;7.05;44.07;101681.00;6163081;28;20234;-51
2021/04/27 06:36:07;;;;;;;2.63;2.30;;;;;;;7.11;43.29;101685.41;6163137;28;20234;-52
2021/04/27 06:39:27;;;;;;;3.07;2.63;;;;;;;7.51;42.90;101693.06;6161309;28;20672;-54
2021/04/27 06:42:48;;;;;;;4.83;3.00;;;;;;;7.95;42.11;101686.03;6164458;28;20325;-55
2021/04/27 06:46:09;;;;;;;2.67;1.57;;;;;;;8.12;41.51;101686.25;6160691;28;20234;-56
2021/04/27 06:49:29;;;;;;;4.20;2.60;;;;;;;8.60;40.58;101674.84;6158259;28;20230;-51
2021/04/27 06:52:50;;;;;;;4.80;1.87;;;;;;;7.81;41.34;101687.50;6162742;28;20250;-56
2021/04/27 06:56:11;;;;;;;3.93;2.27;;;;;;;7.09;42.86;101674.16;6160167;28;20235;-53
2021/04/27 06:59:32;;;;;;;1.80;1.63;;;;;;;7.47;42.34;101685.22;6153905;28;20589;-54
2021/04/27 07:02:52;;;;;;;7.10;2.10;;;;;;;8.34;40.76;101681.41;6161308;28;20616;-54
2021/04/27 07:06:13;;;;;;;6.53;5.83;;;;;;;8.70;40.35;101675.84;6163607;28;20235;-55
2021/04/27 07:09:35;;;;;;;2.70;2.13;;;;;;;8.22;39.93;101682.06;6162309;28;20358;-55
2021/04/27 07:12:56;;;;;;;4.43;1.50;;;;;;;8.05;40.44;101672.34;6162557;28;20577;-49
2021/04/27 07:16:17;;;;;;;3.83;1.90;;;;;;;8.11;39.43;101671.56;6160925;28;20242;-53
2021/04/27 07:19:37;;;;;;;2.00;1.80;;;;;;;8.09;40.18;101674.13;6157322;28;20230;-52
2021/04/27 07:22:59;;;;;;;2.10;1.47;;;;;;;7.68;40.27;101668.31;6163852;28;20234;-54
2021/04/27 07:26:20;;;;;;;2.47;1.83;;;;;;;8.15;39.62;101668.16;6158383;28;20243;-56
2021/04/27 07:29:41;;;;;;;4.27;1.57;;;;;;;8.55;39.32;101665.25;6162851;28;20664;-56
2021/04/27 07:33:02;;;;;;;4.27;1.80;;;;;;;8.39;38.86;101657.22;6157947;28;20235;-56
2021/04/27 07:36:22;;;;;;;4.43;2.70;;;;;;;7.77;39.86;101667.56;6161349;28;20231;-53
2021/04/27 07:39:43;;;;;;;4.60;2.03;;;;;;;8.46;39.08;101655.63;6160396;28;20229;-53
2021/04/27 07:43:05;;;;;;;4.40;1.80;;;;;;;8.01;40.09;101656.72;6160745;28;20235;-56
2021/04/27 07:46:26;;;;;;;4.03;1.73;;;;;;;7.79;40.65;101655.50;6160291;28;20230;-52
2021/04/27 07:49:46;;;;;;;2.97;1.90;;;;;;;9.05;38.81;101657.19;6161855;28;20250;-53
2021/04/27 07:53:07;;;;;;;3.20;1.90;;;;;;;8.26;39.19;101644.97;6161391;28;20262;-54
2021/04/27 07:56:29;;;;;;;3.37;2.17;;;;;;;8.06;39.71;101645.56;6158994;28;20341;-52
2021/04/27 07:59:51;;;;;;;1.60;1.23;;;;;;;8.90;38.01;101646.63;6159276;28;20230;-54
2021/04/27 08:03:11;;;;;;;2.53;2.33;;;;;;;8.97;37.94;101641.50;6161609;28;20243;-57
2021/04/27 08:06:32;;;;;;;3.50;1.70;;;;;;;9.95;38.67;101641.50;6156739;28;20235;-55
2021/04/27 08:09:52;;;;;;;3.07;1.57;;;;;;;9.91;39.92;101631.94;6163968;28;20238;-57
2021/04/27 08:13:13;;;;;;;3.53;2.00;;;;;;;9.73;36.94;101634.41;6159438;28;20227;-54
2021/04/27 08:16:35;;;;;;;5.47;1.93;;;;;;;10.03;36.21;101629.41;6162061;28;20251;-57
2021/04/27 08:19:56;;;;;;;2.93;1.57;;;;;;;9.19;36.80;101632.22;6158556;28;20291;-55
2021/04/27 08:23:16;;;;;;;2.83;1.70;;;;;;;9.47;37.21;101637.69;6158925;28;20622;-55
2021/04/27 08:26:37;;;;;;;2.00;1.30;;;;;;;10.03;35.72;101632.00;6146139;28;20597;-55
2021/04/27 08:29:57;;;;;;;3.70;2.03;;;;;;;9.44;36.75;101629.84;6174189;28;20234;-52
2021/04/27 08:33:19;;;;;;;3.00;1.37;;;;;;;10.44;35.62;101620.97;6163129;28;20226;-54
2021/04/27 08:36:39;;;;;;;3.10;2.30;;;;;;;10.52;35.21;101622.75;6158711;28;20230;-57
2021/04/27 08:40:00;;;;;;;3.57;1.87;;;;;;;10.32;35.76;101626.13;6157042;28;20238;-54
2021/04/27 08:43:22;;;;;;;2.10;1.90;;;;;;;10.83;34.68;101624.59;6157553;28;20230;-56
2021/04/27 08:46:44;;;;;;;2.83;2.23;;;;;;;10.58;34.41;101620.16;6163940;28;20245;-52
2021/04/27 08:50:09;;;;;;;4.53;2.10;;;;;;;10.35;34.94;101613.16;6158313;28;20226;-54
2021/04/27 08:53:30;;;;;;;2.73;1.70;;;;;;;10.92;34.04;101615.06;6156443;28;20228;-56
2021/04/27 08:56:51;;;;;;;3.13;1.43;;;;;;;10.48;34.39;101613.19;6161568;28;20527;-57
2021/04/27 09:00:14;;;;;;;5.07;1.73;;;;;;;11.28;33.28;101614.22;6164124;28;20321;-56
2021/04/27 09:03:42;;;;;;;3.90;1.10;;;;;;;10.90;33.41;101611.59;6421321;23;20238;-54
2021/04/27 09:07:05;;;;;;;5.10;1.47;;;;;;;10.42;33.07;101609.69;6159201;28;20627;-57
2021/04/27 09:10:28;;;;;;;4.27;2.17;;;;;;;11.41;31.79;101604.69;6164262;28;20320;-49
2021/04/27 09:14:06;;;;;;;2.57;1.57;;;;;;;11.53;32.07;101614.25;6152974;28;20234;-56
2021/04/27 09:17:29;;;;;;;3.33;1.80;;;;;;;12.25;31.93;101601.09;6137598;28;20239;-57
2021/04/27 09:20:51;;;;;;;2.10;1.80;;;;;;;12.54;30.26;101592.25;6136712;28;20620;-54
2021/04/27 09:24:15;;;;;;;2.10;1.60;;;;;;;11.71;31.24;101589.88;6136142;28;20676;-56
2021/04/27 09:27:38;;;;;;;3.97;1.30;;;;;;;12.16;30.03;101585.47;6135473;28;20510;-55
2021/04/27 09:30:58;;;;;;;1.60;1.50;;;;;;;12.17;28.34;101595.03;6141262;28;20711;-54
2021/04/27 09:34:21;;;;;;;1.30;1.20;;;;;;;12.05;31.37;101571.56;6140343;28;20246;-56
2021/04/27 09:38:05;;;;;;;1.37;1.27;;;;;;;10.97;28.51;101590.75;6138179;28;20688;-56
2021/04/27 09:41:27;;;;;;;2.67;1.37;;;;;;;12.08;29.63;101579.38;6135378;28;20219;-55
2021/04/27 09:44:50;;;;;;;1.30;1.20;;;;;;;12.12;29.20;101574.16;6137458;28;20231;-56
2021/04/27 09:48:11;;;;;;;2.37;1.80;;;;;;;12.45;28.20;101571.44;6134924;28;20231;-57
2021/04/27 09:51:33;;;;;;;4.80;1.80;;;;;;;11.59;29.27;101569.88;6138258;28;20911;-55
2021/04/27 09:55:06;;;;;;;1.20;1.07;;;;;;;12.10;29.51;101564.63;6133839;28;20247;-56
2021/04/27 09:58:28;;;;;;;2.27;1.60;;;;;;;12.58;29.01;101554.78;6137477;28;20227;-54
2021/04/27 10:01:50;;;;;;;3.63;2.40;;;;;;;12.60;27.15;101553.03;6134891;28;20527;-53
2021/04/27 10:05:11;;;;;;;2.43;1.60;;;;;;;12.74;26.17;101551.22;6133002;28;20231;-54
2021/04/27 10:08:31;;;;;;;3.10;1.10;;;;;;;12.74;26.68;101538.16;6134563;28;20227;-54
2021/04/27 10:11:53;;;;;;;1.43;1.33;;;;;;;12.90;25.98;101544.16;6145998;28;20231;-53
2021/04/27 10:15:14;;;;;;;1.63;1.37;;;;;;;13.11;26.29;101537.88;6137557;28;20235;-56
2021/04/27 10:18:35;;;;;;;1.67;0.97;;;;;;;12.53;26.23;101533.06;6136962;28;20242;-56
2021/04/27 10:21:56;;;;;;;3.90;1.27;;;;;;;11.91;26.02;101538.56;6133447;28;20581;-57
2021/04/27 10:25:19;;;;;;;1.63;1.30;;;;;;;11.78;25.63;101523.75;6138942;28;20242;-54
2021/04/27 10:29:16;;;;;;;1.23;1.00;;;;;;;12.46;24.99;101528.75;6138882;28;20239;-56
2021/04/27 10:32:38;;;;;;;1.23;1.13;;;;;;;13.13;25.93;101514.34;6054986;29;20622;-57
2021/04/27 10:36:04;;;;;;;1.23;0.90;;;;;;;12.17;24.46;101504.53;6068472;28;20334;-53
2021/04/27 10:39:36;;;;;;;5.17;3.97;;;;;;;13.14;25.10;101503.88;6130008;28;20243;-55
2021/04/27 10:42:57;;;;;;;1.50;1.37;;;;;;;12.76;24.80;101499.81;6130383;28;20688;-54
2021/04/27 10:46:53;;;;;;;1.70;1.00;;;;;;;12.93;24.85;101489.22;6130004;28;20255;-55
2021/04/27 10:50:28;;;;;;;3.07;1.47;;;;;;;13.17;24.80;101490.75;6135773;28;20235;-52
2021/04/27 10:54:04;;;;;;;0.93;0.93;;;;;;;13.49;23.92;101473.94;6135596;28;20234;-54
2021/04/27 10:57:25;;;;;;;0.70;0.70;;;;;;;13.05;24.26;101479.56;6135260;28;20811;-53
2021/04/27 11:00:46;;;;;;;2.40;1.30;;;;;;;14.31;24.54;101472.91;6139821;28;20247;-54
2021/04/27 11:04:07;;;;;;;2.47;1.03;;;;;;;14.84;23.13;101462.53;6138692;28;20617;-55
2021/04/27 11:07:34;;;;;;;1.57;0.97;;;;;;;13.77;24.00;101471.84;6140823;28;20675;-53
2021/04/27 11:10:54;;;;;;;1.10;1.00;;;;;;;12.47;24.78;101457.34;6139101;28;20235;-56
2021/04/27 11:14:20;;;;;;;1.00;1.00;;;;;;;14.99;22.97;101446.53;6140434;28;20636;-53
2021/04/27 11:17:56;;;;;;;1.70;1.10;;;;;;;14.51;22.76;101451.66;6142092;28;20231;-54
2021/04/27 11:21:17;;;;;;;1.87;0.80;;;;;;;15.07;22.42;101439.38;6141459;28;20235;-54
2021/04/27 11:24:41;;;;;;;1.47;1.00;;;;;;;15.10;22.10;101434.09;6139115;28;20243;-58
2021/04/27 11:28:02;;;;;;;2.50;1.13;;;;;;;14.71;21.87;101433.91;6138782;28;20255;-54
2021/04/27 11:31:22;;;;;;;3.90;0.90;;;;;;;15.49;21.44;101431.63;6143011;28;20239;-54
2021/04/27 11:34:49;;;;;;;2.23;1.10;;;;;;;16.53;20.54;101427.63;6139389;28;20231;-54
2021/04/27 11:38:10;;;;;;;2.53;1.40;;;;;;;15.39;22.29;101429.19;6139109;28;20557;-57
2021/04/27 11:41:46;;;;;;;3.03;0.90;;;;;;;16.31;21.74;101412.38;6127909;28;20693;-56
2021/04/27 11:45:10;;;;;;;4.10;1.37;;;;;;;17.13;21.67;101412.97;6139833;28;20239;-54
2021/04/27 11:48:30;;;;;;;1.03;1.00;;;;;;;16.28;21.79;101406.31;6137276;28;20495;-55
2021/04/27 11:51:50;;;;;;;0.87;0.87;;;;;;;14.75;21.70;101408.47;6136027;28;20231;-56
2021/04/27 11:55:20;;;;;;;3.90;1.00;;;;;;;14.98;20.63;101402.81;6134880;28;20754;-58
2021/04/27 11:58:46;;;;;;;6.50;5.90;;;;;;;16.66;20.05;101405.38;6129361;28;20537;-55
2021/04/27 12:02:06;;;;;;;3.53;1.30;;;;;;;16.22;20.12;101396.81;6142021;28;20607;-57
2021/04/27 12:05:34;;;;;;;2.30;1.57;;;;;;;16.92;19.00;101401.25;6140068;28;20347;-56
2021/04/27 12:08:56;;;;;;;2.47;1.23;;;;;;;21.10;15.53;101385.03;6125981;28;20243;-57
2021/04/27 12:12:18;;;;;;;1.40;1.30;;;;;;;23.88;12.84;101378.34;6133800;28;20239;-57
2021/04/27 12:15:39;;;;;;;1.30;0.87;;;;;;;22.38;12.82;101372.03;6135511;28;20349;-56
2021/04/27 12:19:02;;;;;;;1.00;1.00;;;;;;;20.38;14.60;101388.94;6140744;28;20243;-58
2021/04/27 12:22:23;;;;;;;0.85;0.85;;;;;;;21.83;13.10;101376.38;6138488;28;20235;-55
2021/04/27 12:25:44;;;;;;;1.15;0.82;;;;;;;20.95;14.50;101374.16;6138654;28;20362;-57
2021/04/27 12:29:05;;;;;;;2.22;0.90;;;;;;;20.95;14.50;101374.16;6134608;28;20231;-55
2021/04/27 12:32:30;;;;;;;3.22;0.90;;;;;;;19.28;14.64;101366.69;6136275;28;21106;-55
2021/04/27 12:35:53;;;;;;;2.00;1.15;;;;;;;21.62;13.47;101356.19;6137444;28;20552;-56
2021/04/27 12:39:32;;;;;;;2.40;0.90;;;;;;;26.75;10.58;101342.81;6138599;28;20225;-57
2021/04/27 12:42:54;;;;;;;2.33;0.80;;;;;;;26.34;11.16;101341.97;6133987;28;20394;-53
2021/04/27 12:46:15;;;;;;;1.35;1.20;;;;;;;27.02;10.08;101329.34;6141871;28;20454;-56
2021/04/27 12:49:36;;;;;;;1.25;0.95;;;;;;;23.98;11.42;101343.16;6136124;28;20239;-54
2021/04/27 12:53:00;;;;;;;1.73;0.90;;;;;;;26.65;10.06;101329.22;6140344;28;20227;-56
2021/04/27 12:56:21;;;;;;;2.60;1.95;;;;;;;29.38;8.27;101325.97;6151171;28;20243;-50
2021/04/27 12:59:43;;;;;;;1.35;0.60;;;;;;;27.71;8.66;101321.72;6128094;28;20354;-55
2021/04/27 13:03:14;;;;;;;0.60;0.60;;;;;;;23.80;10.42;101330.03;6137887;28;20634;-56
2021/04/27 13:06:36;;;;;;;0.80;0.80;;;;;;;22.76;11.45;101330.25;6135804;28;20234;-50
2021/04/27 13:09:59;;;;;;;1.13;0.90;;;;;;;26.06;9.95;101313.63;6140089;28;20231;-53
2021/04/27 13:13:21;;;;;;;2.65;1.25;;;;;;;27.82;8.29;101297.72;6131748;28;20322;-59
2021/04/27 13:16:42;;;;;;;0.80;0.80;;;;;;;27.13;8.64;101308.06;6132191;28;20231;-58
2021/04/27 13:20:16;;;;;;;0.70;0.70;;;;;;;24.38;10.71;101300.91;6138152;28;20231;-55
2021/04/27 13:23:37;;;;;;;1.80;1.63;;;;;;;27.11;9.59;101297.47;6138489;28;20321;-58
2021/04/27 13:27:00;;;;;;;1.92;1.00;;;;;;;26.21;9.72;101290.34;6136842;28;20259;-56
2021/04/27 13:30:23;;;;;;;0.82;0.82;;;;;;;28.57;8.65;101275.13;6132082;28;21378;-56
2021/04/27 13:33:43;;;;;;;1.05;0.70;;;;;;;26.19;8.32;101290.50;6139343;28;20251;-57
2021/04/27 13:37:04;;;;;;;1.40;1.08;;;;;;;22.59;11.53;101274.53;6137082;28;20243;-54
2021/04/27 13:40:26;;;;;;;0.95;0.85;;;;;;;23.71;10.71;101276.41;6136128;28;20260;-55
2021/04/27 13:43:49;;;;;;;0.73;0.73;;;;;;;26.46;9.57;101247.69;6131757;28;20235;-53
2021/04/27 13:47:09;;;;;;;2.13;1.27;;;;;;;25.85;10.75;101271.34;6133164;28;20274;-56
2021/04/27 13:50:31;;;;;;;3.72;1.45;;;;;;;27.11;9.51;101267.22;6130668;28;20296;-50
2021/04/27 13:53:51;;;;;;;2.17;1.90;;;;;;;27.08;8.51;101254.94;6136563;28;20230;-57
2021/04/27 13:57:13;;;;;;;1.70;1.10;;;;;;;25.85;9.13;101251.81;6135982;28;20227;-55
2021/04/27 14:00:34;;;;;;;2.45;1.20;;;;;;;26.42;9.56;101246.19;6133471;28;20235;-55
2021/04/27 14:03:55;;;;;;;8.25;1.23;;;;;;;27.07;9.08;101234.50;6134856;28;20325;-56
2021/04/27 14:07:15;;;;;;;4.68;1.10;;;;;;;23.93;10.42;101243.31;6136320;28;20227;-57
2021/04/27 14:10:37;;;;;;;1.75;1.40;;;;;;;22.01;10.90;101241.19;6137703;28;20243;-55
2021/04/27 14:13:58;;;;;;;1.42;1.23;;;;;;;20.56;11.96;101250.56;6136817;28;20226;-55
2021/04/27 14:17:19;;;;;;;3.22;1.20;;;;;;;18.66;13.73;101243.97;6135752;28;20288;-50
2021/04/27 14:20:41;;;;;;;1.35;0.90;;;;;;;19.37;12.96;101241.38;6141289;28;20577;-55
2021/04/27 14:24:01;;;;;;;2.58;0.95;;;;;;;19.41;12.80;101240.31;6137312;28;20231;-56
2021/04/27 14:27:22;;;;;;;0.60;0.60;;;;;;;19.11;12.58;101233.59;6141153;28;20887;-55
2021/04/27 14:30:44;;;;;;;1.45;1.20;;;;;;;19.07;13.11;101228.41;6138927;28;20689;-55
2021/04/27 14:34:05;;;;;;;0.90;0.80;;;;;;;19.17;14.05;101230.72;6138783;28;20250;-52
2021/04/27 14:37:25;;;;;;;2.00;0.85;;;;;;;19.69;13.56;101223.38;6146467;28;20247;-56
2021/04/27 14:40:46;;;;;;;1.63;1.05;;;;;;;20.32;12.86;101214.63;6141817;28;20235;-52
2021/04/27 14:44:07;;;;;;;2.87;1.10;;;;;;;20.01;13.02;101215.94;6140410;28;20227;-56
2021/04/27 14:47:28;;;;;;;1.97;0.80;;;;;;;20.11;13.07;101208.47;6140640;28;20250;-58
2021/04/27 14:50:50;;;;;;;0.60;0.60;;;;;;;20.28;12.98;101198.03;6135099;28;20238;-53
2021/04/27 14:54:10;;;;;;;1.45;0.70;;;;;;;20.23;12.40;101195.56;6140619;28;20306;-54
2021/04/27 14:57:31;;;;;;;1.20;1.00;;;;;;;20.22;12.10;101191.22;6143808;28;20611;-54
2021/04/27 15:00:51;;;;;;;3.35;1.10;;;;;;;19.62;12.47;101192.84;6140373;28;20243;-56
2021/04/27 15:04:13;;;;;;;0.60;0.60;;;;;;;18.15;13.08;101186.91;6136551;28;20235;-54
2021/04/27 15:07:33;;;;;;;2.75;1.38;;;;;;;19.16;11.81;101190.25;6144117;28;20231;-55
2021/04/27 15:10:54;;;;;;;2.13;1.17;;;;;;;20.10;12.92;101178.50;6132233;28;20239;-54
2021/04/27 15:14:14;;;;;;;1.75;1.05;;;;;;;20.23;12.04;101174.41;6136554;28;20239;-55
2021/04/27 15:17:35;;;;;;;3.17;1.10;;;;;;;20.40;12.17;101172.81;6126273;28;20231;-56
2021/04/27 15:20:56;;;;;;;2.70;1.45;;;;;;;20.35;12.96;101173.00;6138349;28;20546;-56
2021/04/27 15:24:17;;;;;;;2.85;1.10;;;;;;;19.73;14.39;101164.22;6129792;28;20533;-56
2021/04/27 15:27:39;;;;;;;1.75;1.65;;;;;;;20.48;14.72;101172.50;6137151;28;20230;-56
2021/04/27 15:30:59;;;;;;;1.85;0.93;;;;;;;20.69;13.89;101160.09;6154998;28;20243;-56
2021/04/27 15:34:21;;;;;;;2.13;1.10;;;;;;;19.98;14.78;101152.63;6134039;28;20325;-54
2021/04/27 15:37:45;;;;;;;13.20;12.07;;;;;;;19.01;13.21;101152.09;6137768;28;20235;-58
2021/04/27 15:41:07;;;;;;;1.88;0.77;;;;;;;17.10;12.86;101161.31;6133031;28;20265;-57
2021/04/27 15:44:28;;;;;;;2.25;1.92;;;;;;;17.29;12.86;101151.09;6137305;28;20711;-58
2021/04/27 15:47:49;;;;;;;9.73;7.80;;;;;;;17.44;12.72;101154.13;6139007;28;20234;-57
2021/04/27 15:51:10;;;;;;;4.20;3.80;;;;;;;18.66;14.07;101154.28;6128816;28;20636;-54
2021/04/27 15:54:31;;;;;;;3.30;2.93;;;;;;;18.78;13.05;101152.09;6136472;28;20230;-55